Time;durP1;ratioP1;P1;durP2;ratioP2;P2;SDS_P1;SDS_P2;PMS_P1;PMS_P2;Temp;Humidity;BMP_temperature;BMP_pressure;BME280_temperature;BME280_humidity;BME280_pressure;Samples;Min_cycle;Max_cycle;Signal;HPM_P1;HPM_P2
2022/02/22 00:00:29;;;;;;;4.63;1.88;;;11.00;77.20;;;;;;5012884;28;20034;-68
2022/02/22 00:02:55;;;;;;;4.00;1.67;;;11.00;76.30;;;;;;5012766;28;20037;-69
2022/02/22 00:05:21;;;;;;;3.67;1.90;;;11.00;76.30;;;;;;5013353;28;20452;-73
2022/02/22 00:07:48;;;;;;;5.00;1.80;;;11.00;76.00;;;;;;5012947;28;20090;-68
2022/02/22 00:10:15;;;;;;;4.20;2.13;;;11.00;75.60;;;;;;5012725;28;20034;-68
2022/02/22 00:12:42;;;;;;;3.03;1.63;;;10.90;75.10;;;;;;5012646;28;20101;-68
2022/02/22 00:15:08;;;;;;;3.97;1.80;;;10.90;74.80;;;;;;5012630;28;20124;-68
2022/02/22 00:17:36;;;;;;;4.47;1.80;;;10.90;74.20;;;;;;5012582;28;20045;-67
2022/02/22 00:20:04;;;;;;;4.90;1.98;;;11.00;74.10;;;;;;5012430;28;20022;-69
2022/02/22 00:22:30;;;;;;;3.25;1.98;;;11.00;73.70;;;;;;4994999;28;20162;-68
2022/02/22 00:24:55;;;;;;;3.40;1.75;;;10.90;73.40;;;;;;5012580;28;20053;-67
2022/02/22 00:27:21;;;;;;;4.07;1.83;;;10.90;73.00;;;;;;5012518;28;20032;-67
2022/02/22 00:29:47;;;;;;;4.13;2.10;;;10.90;73.50;;;;;;5012748;28;20034;-70
2022/02/22 00:32:13;;;;;;;5.40;2.65;;;10.90;73.50;;;;;;5013005;28;20026;-70
2022/02/22 00:34:38;;;;;;;5.95;1.90;;;10.90;73.70;;;;;;5013630;28;20029;-74
2022/02/22 00:37:04;;;;;;;5.47;1.83;;;10.90;73.50;;;;;;5013472;28;20088;-75
2022/02/22 00:39:30;;;;;;;4.70;1.88;;;10.90;73.60;;;;;;5012606;28;20025;-79
2022/02/22 00:41:55;;;;;;;6.00;2.00;;;10.90;73.80;;;;;;5012996;28;20049;-78
2022/02/22 00:44:23;;;;;;;5.13;2.45;;;10.90;73.80;;;;;;5012617;28;20132;-82
2022/02/22 00:46:50;;;;;;;2.95;1.67;;;10.90;73.80;;;;;;4995610;28;20033;-73
2022/02/22 00:49:16;;;;;;;4.22;2.08;;;10.90;73.60;;;;;;4998465;28;20029;-78
2022/02/22 00:51:42;;;;;;;5.55;1.88;;;10.90;73.60;;;;;;5016215;28;20487;-72
2022/02/22 00:54:07;;;;;;;4.22;1.92;;;10.90;73.30;;;;;;5016176;28;20030;-79
2022/02/22 00:56:33;;;;;;;5.35;1.80;;;10.90;73.00;;;;;;5016304;28;20034;-77
2022/02/22 00:58:59;;;;;;;5.57;1.88;;;10.90;72.80;;;;;;5016085;28;20079;-76
2022/02/22 01:01:25;;;;;;;3.42;1.75;;;10.80;72.70;;;;;;5016200;28;20026;-78
2022/02/22 01:03:52;;;;;;;3.38;1.70;;;10.80;72.50;;;;;;4998684;28;20442;-78
2022/02/22 01:06:17;;;;;;;5.55;2.03;;;10.80;71.70;;;;;;5015971;28;20087;-76
2022/02/22 01:08:44;;;;;;;5.18;1.95;;;10.80;72.00;;;;;;5015905;28;20014;-75
2022/02/22 01:11:09;;;;;;;3.65;1.85;;;10.70;71.60;;;;;;5015959;28;20033;-76
2022/02/22 01:13:35;;;;;;;4.68;1.48;;;10.70;71.00;;;;;;5015937;28;20022;-76
2022/02/22 01:16:01;;;;;;;5.07;1.58;;;10.60;70.90;;;;;;5016048;28;20032;-80
2022/02/22 01:18:27;;;;;;;3.38;1.67;;;10.60;70.60;;;;;;5015841;28;20087;-78
2022/02/22 01:20:53;;;;;;;3.15;1.58;;;10.50;70.80;;;;;;4998443;28;20030;-78
2022/02/22 01:23:19;;;;;;;3.88;1.80;;;10.40;71.00;;;;;;5015794;28;20033;-81
2022/02/22 01:25:46;;;;;;;4.03;1.70;;;10.40;71.30;;;;;;5016031;28;20026;-74
2022/02/22 01:28:13;;;;;;;4.72;1.55;;;10.40;71.00;;;;;;4998440;28;20022;-79
2022/02/22 01:30:40;;;;;;;3.25;1.70;;;10.30;70.70;;;;;;5015541;28;20106;-78
2022/02/22 01:33:06;;;;;;;4.35;1.83;;;10.30;70.90;;;;;;5015420;28;20721;-79
2022/02/22 01:35:32;;;;;;;3.47;1.58;;;10.20;70.60;;;;;;5015358;28;20028;-80
2022/02/22 01:37:58;;;;;;;4.25;1.58;;;10.20;70.50;;;;;;5015186;28;20112;-80
2022/02/22 01:40:26;;;;;;;5.00;1.70;;;10.20;70.50;;;;;;4965479;28;20391;-80
2022/02/22 01:42:53;;;;;;;5.13;1.60;;;10.20;70.50;;;;;;5015217;28;20030;-80
2022/02/22 01:45:25;;;;;;;3.30;1.60;;;10.20;70.40;;;;;;5015314;28;20495;-81
2022/02/22 01:47:52;;;;;;;3.42;1.60;;;10.10;69.80;;;;;;5015507;28;20164;-80
2022/02/22 01:50:17;;;;;;;6.05;1.73;;;10.10;69.40;;;;;;5015712;28;20052;-80
2022/02/22 01:52:43;;;;;;;5.45;1.60;;;10.10;69.00;;;;;;5015563;28;20054;-66
2022/02/22 01:55:11;;;;;;;4.15;1.80;;;10.10;69.00;;;;;;5014261;28;20037;-66
2022/02/22 01:57:37;;;;;;;3.97;1.85;;;10.10;68.40;;;;;;5014692;28;20044;-66
2022/02/22 02:00:06;;;;;;;4.47;1.50;;;10.10;68.40;;;;;;5013631;28;20061;-66
2022/02/22 02:02:32;;;;;;;5.72;1.85;;;10.10;68.00;;;;;;5014689;28;20026;-67
2022/02/22 02:04:58;;;;;;;5.30;2.33;;;10.10;68.00;;;;;;5014750;28;20092;-68
2022/02/22 02:07:24;;;;;;;4.85;1.95;;;10.10;68.00;;;;;;4997321;28;20547;-67
2022/02/22 02:09:50;;;;;;;4.82;2.63;;;10.10;67.60;;;;;;4996955;28;20066;-68
2022/02/22 02:12:16;;;;;;;5.35;2.22;;;10.10;67.70;;;;;;5014632;28;20208;-69
2022/02/22 02:14:42;;;;;;;4.95;2.40;;;10.10;67.60;;;;;;5014448;28;20053;-68
2022/02/22 02:17:07;;;;;;;4.55;2.38;;;10.10;66.80;;;;;;5014387;28;20034;-67
2022/02/22 02:19:35;;;;;;;5.43;2.70;;;10.10;67.00;;;;;;4996931;28;20117;-67
2022/02/22 02:22:00;;;;;;;6.32;2.95;;;10.10;66.70;;;;;;5014333;28;20030;-68
2022/02/22 02:24:27;;;;;;;5.72;3.20;;;10.10;66.60;;;;;;4996650;28;20069;-66
2022/02/22 02:26:55;;;;;;;5.80;3.17;;;10.10;66.60;;;;;;5014361;28;20033;-66
2022/02/22 02:29:24;;;;;;;7.05;3.25;;;10.10;66.60;;;;;;5014177;28;20144;-67
2022/02/22 02:31:51;;;;;;;7.13;3.70;;;10.10;66.10;;;;;;5014023;28;20028;-66
2022/02/22 02:34:20;;;;;;;8.75;3.50;;;10.10;66.20;;;;;;5014301;28;20057;-67
2022/02/22 02:36:47;;;;;;;7.00;3.70;;;10.10;66.30;;;;;;5014198;28;20026;-66
2022/02/22 02:39:13;;;;;;;7.95;4.30;;;10.10;67.30;;;;;;5014070;28;20447;-67
2022/02/22 02:41:40;;;;;;;7.95;4.10;;;10.10;67.00;;;;;;5014057;28;20022;-67
2022/02/22 02:44:12;;;;;;;8.98;4.05;;;10.10;67.00;;;;;;5013898;28;20053;-67
2022/02/22 02:46:38;;;;;;;7.05;4.00;;;10.10;66.90;;;;;;4998750;28;20030;-67
2022/02/22 02:49:06;;;;;;;12.15;5.47;;;10.00;67.30;;;;;;5015195;28;20105;-68
2022/02/22 02:51:32;;;;;;;9.02;4.95;;;10.00;67.60;;;;;;4997456;28;20022;-66
2022/02/22 02:53:58;;;;;;;8.82;5.38;;;10.00;67.60;;;;;;4994139;28;20104;-67
2022/02/22 02:56:24;;;;;;;9.48;5.05;;;10.00;67.70;;;;;;4996120;28;20475;-67
2022/02/22 02:58:56;;;;;;;12.10;5.82;;;10.00;68.00;;;;;;4996181;28;20058;-70
2022/02/22 03:01:23;;;;;;;11.13;4.90;;;10.00;68.30;;;;;;5013406;28;20084;-66
2022/02/22 03:03:49;;;;;;;9.02;5.35;;;10.00;68.40;;;;;;5013493;28;20038;-67
2022/02/22 03:06:16;;;;;;;10.40;5.63;;;10.00;68.50;;;;;;5013740;28;20091;-71
2022/02/22 03:08:42;;;;;;;10.98;5.85;;;10.00;68.50;;;;;;5013342;28;20030;-67
2022/02/22 03:11:08;;;;;;;11.05;5.90;;;9.90;70.00;;;;;;5013009;28;20267;-67
2022/02/22 03:13:34;;;;;;;10.27;5.18;;;9.90;70.30;;;;;;5013391;28;20045;-68
2022/02/22 03:15:59;;;;;;;12.25;5.30;;;9.90;70.30;;;;;;4995955;28;20030;-66
2022/02/22 03:18:25;;;;;;;10.65;5.70;;;9.90;70.60;;;;;;5013284;28;20037;-67
2022/02/22 03:20:51;;;;;;;12.45;6.15;;;9.80;70.80;;;;;;5013370;28;20022;-73
2022/02/22 03:23:19;;;;;;;13.50;5.50;;;9.80;70.90;;;;;;5013310;28;20133;-68
2022/02/22 03:25:45;;;;;;;10.15;5.43;;;9.80;71.00;;;;;;5013230;28;20029;-67
2022/02/22 03:28:11;;;;;;;10.95;5.50;;;9.80;71.10;;;;;;5013095;28;20058;-66
2022/02/22 03:30:38;;;;;;;8.65;5.10;;;9.80;71.10;;;;;;5013308;28;20061;-68
2022/02/22 03:33:05;;;;;;;14.13;5.53;;;9.80;71.10;;;;;;5014054;28;20029;-67
2022/02/22 03:35:31;;;;;;;9.15;5.13;;;9.80;71.30;;;;;;5013109;28;20109;-67
2022/02/22 03:37:57;;;;;;;10.73;5.57;;;9.80;71.20;;;;;;5012899;28;20033;-70
2022/02/22 03:40:23;;;;;;;10.75;5.15;;;9.80;71.30;;;;;;5012843;28;20076;-69
2022/02/22 03:42:50;;;;;;;9.90;5.00;;;9.80;71.40;;;;;;5012675;28;20038;-68
2022/02/22 03:45:16;;;;;;;11.30;5.05;;;9.80;72.10;;;;;;5013062;28;20029;-76
2022/02/22 03:47:43;;;;;;;11.93;5.05;;;9.70;71.50;;;;;;5013056;28;20029;-72
2022/02/22 03:50:14;;;;;;;11.25;5.28;;;9.70;71.70;;;;;;5012866;28;20029;-75
2022/02/22 03:52:40;;;;;;;9.13;4.85;;;9.70;71.70;;;;;;5017786;28;20052;-77
2022/02/22 03:55:07;;;;;;;9.40;4.47;;;9.70;71.90;;;;;;5014005;28;20081;-74
2022/02/22 03:57:34;;;;;;;9.98;4.40;;;9.60;71.90;;;;;;5013157;28;20059;-77
2022/02/22 04:00:05;;;;;;;9.32;4.60;;;9.60;72.00;;;;;;5012859;28;20070;-79
2022/02/22 04:02:30;;;;;;;9.88;4.50;;;9.60;72.30;;;;;;4995417;28;20022;-77
2022/02/22 04:05:01;;;;;;;7.57;4.05;;;9.60;72.20;;;;;;5014987;28;20471;-78
2022/02/22 04:07:30;;;;;;;8.65;4.18;;;9.60;72.30;;;;;;4998518;28;20025;-79
2022/02/22 04:09:55;;;;;;;8.80;4.22;;;9.60;72.40;;;;;;5014715;28;20029;-79
2022/02/22 04:12:21;;;;;;;8.52;4.00;;;9.60;72.30;;;;;;5013327;28;20026;-72
2022/02/22 04:14:47;;;;;;;10.80;4.68;;;9.50;72.30;;;;;;5019138;28;20018;-76
2022/02/22 04:17:12;;;;;;;7.80;3.70;;;9.50;72.40;;;;;;5012954;28;20026;-74
2022/02/22 04:19:38;;;;;;;10.23;4.15;;;9.50;72.40;;;;;;5013154;28;20405;-80
2022/02/22 04:22:04;;;;;;;8.35;4.05;;;9.50;72.40;;;;;;4995741;28;20033;-80
2022/02/22 04:24:30;;;;;;;9.32;3.67;;;9.40;72.50;;;;;;4999571;28;20093;-79
2022/02/22 04:26:56;;;;;;;6.78;3.90;;;9.40;72.50;;;;;;5017018;28;20026;-78
2022/02/22 04:29:25;;;;;;;10.27;4.40;;;9.40;72.70;;;;;;5016777;28;20034;-79
2022/02/22 04:31:50;;;;;;;7.82;3.95;;;9.40;73.20;;;;;;5016785;28;20026;-74
2022/02/22 04:34:16;;;;;;;8.90;4.07;;;9.40;73.20;;;;;;5016800;28;20056;-76
2022/02/22 04:36:42;;;;;;;10.50;3.80;;;9.40;73.30;;;;;;4999182;28;20037;-80
2022/02/22 04:39:11;;;;;;;8.45;3.60;;;9.30;73.40;;;;;;5016807;28;20041;-81
2022/02/22 04:41:36;;;;;;;8.18;4.22;;;9.30;73.80;;;;;;5016636;28;20053;-80
2022/02/22 04:44:02;;;;;;;8.00;4.25;;;9.30;73.60;;;;;;5016218;28;20046;-79
2022/02/22 04:46:28;;;;;;;10.13;3.97;;;9.30;73.80;;;;;;5016835;28;20123;-75
2022/02/22 04:48:55;;;;;;;8.18;4.05;;;9.30;73.90;;;;;;5016357;28;20034;-78
2022/02/22 04:51:21;;;;;;;8.43;4.10;;;9.30;74.10;;;;;;5016250;28;20036;-76
2022/02/22 04:53:46;;;;;;;10.07;3.97;;;9.20;74.00;;;;;;5016120;28;20173;-80
2022/02/22 04:56:13;;;;;;;8.40;3.40;;;9.20;74.20;;;;;;5016479;28;20034;-80
2022/02/22 04:58:39;;;;;;;10.88;4.30;;;9.20;74.80;;;;;;5016240;28;20365;-80
2022/02/22 05:01:05;;;;;;;8.93;4.13;;;9.20;74.60;;;;;;5016185;28;20030;-79
2022/02/22 05:03:32;;;;;;;8.43;3.95;;;9.20;74.60;;;;;;5016278;28;20034;-77
2022/02/22 05:06:00;;;;;;;10.27;4.10;;;9.20;75.20;;;;;;5016117;28;20073;-78
2022/02/22 05:08:26;;;;;;;10.80;3.75;;;9.10;74.50;;;;;;5016060;28;20371;-81
2022/02/22 05:10:53;;;;;;;8.40;3.70;;;9.10;75.10;;;;;;5016109;28;20022;-82
2022/02/22 05:13:18;;;;;;;9.57;4.15;;;9.10;74.70;;;;;;5016166;28;20034;-80
2022/02/22 05:15:44;;;;;;;10.18;4.05;;;9.10;74.70;;;;;;4998159;28;20117;-79
2022/02/22 05:18:13;;;;;;;8.68;3.55;;;9.10;75.10;;;;;;5015344;28;20487;-68
2022/02/22 05:20:54;;;;;;;9.10;3.85;;;9.10;75.50;;;;;;5015342;28;20026;-68
2022/02/22 05:23:20;;;;;;;10.73;3.70;;;9.10;75.70;;;;;;4997029;28;20144;-67
2022/02/22 05:25:46;;;;;;;6.93;3.35;;;9.10;74.90;;;;;;4997615;28;20037;-70
2022/02/22 05:28:12;;;;;;;11.23;3.67;;;9.10;75.20;;;;;;5015109;28;20093;-68
2022/02/22 05:30:39;;;;;;;6.75;3.55;;;9.10;75.20;;;;;;5015215;28;20148;-70
2022/02/22 05:33:05;;;;;;;9.02;3.47;;;9.10;75.00;;;;;;5015130;28;20471;-72
2022/02/22 05:35:33;;;;;;;9.43;4.55;;;9.10;75.30;;;;;;5014083;28;20084;-67
2022/02/22 05:37:59;;;;;;;8.45;3.83;;;9.10;75.20;;;;;;5015020;28;20041;-69
2022/02/22 05:40:27;;;;;;;7.40;3.63;;;9.10;75.40;;;;;;5015449;28;20042;-71
2022/02/22 05:42:52;;;;;;;8.30;3.45;;;9.10;75.90;;;;;;5014966;28;20471;-66
2022/02/22 05:45:19;;;;;;;10.80;4.25;;;9.10;75.40;;;;;;5015147;28;20043;-67
2022/02/22 05:47:45;;;;;;;8.27;3.85;;;9.20;75.70;;;;;;4997145;28;20493;-68
2022/02/22 05:50:10;;;;;;;8.98;3.63;;;9.20;75.50;;;;;;5014678;28;20084;-67
2022/02/22 05:52:37;;;;;;;11.38;5.82;;;9.20;75.50;;;;;;5014609;28;20025;-67
2022/02/22 05:55:03;;;;;;;9.95;4.60;;;9.20;76.30;;;;;;5014639;28;20121;-66
2022/02/22 05:57:30;;;;;;;11.23;4.10;;;9.20;75.60;;;;;;5014686;28;20064;-67
2022/02/22 05:59:56;;;;;;;11.85;4.82;;;9.30;76.30;;;;;;5014696;28;20041;-70
2022/02/22 06:02:22;;;;;;;13.82;4.82;;;9.30;75.50;;;;;;5014696;28;20100;-68
2022/02/22 06:04:47;;;;;;;10.25;5.05;;;9.30;75.60;;;;;;5014614;28;20087;-69
2022/02/22 06:07:13;;;;;;;11.85;5.22;;;9.30;75.60;;;;;;5015294;28;20052;-67
2022/02/22 06:09:39;;;;;;;17.30;6.35;;;9.30;75.80;;;;;;5014632;28;20032;-69
2022/02/22 06:12:06;;;;;;;11.75;5.40;;;9.30;76.00;;;;;;5014536;28;20026;-68
2022/02/22 06:14:33;;;;;;;13.73;6.18;;;9.30;76.00;;;;;;4963699;28;20070;-73
2022/02/22 06:17:00;;;;;;;13.82;5.88;;;9.40;76.00;;;;;;5014684;28;20116;-67
2022/02/22 06:19:27;;;;;;;11.82;6.85;;;9.40;76.00;;;;;;4980749;28;20022;-75
2022/02/22 06:21:53;;;;;;;15.13;6.97;;;9.40;76.70;;;;;;5014946;28;20034;-72
2022/02/22 06:24:20;;;;;;;16.00;6.75;;;9.40;75.90;;;;;;5014887;28;20368;-68
2022/02/22 06:26:46;;;;;;;19.05;8.05;;;9.40;75.90;;;;;;5015247;28;20029;-69
2022/02/22 06:29:11;;;;;;;14.82;7.78;;;9.40;76.10;;;;;;5017402;28;20104;-69
2022/02/22 06:31:38;;;;;;;17.15;8.63;;;9.40;75.50;;;;;;5016870;28;20105;-68
2022/02/22 06:34:07;;;;;;;20.05;9.70;;;9.40;76.10;;;;;;4997139;28;20048;-69
2022/02/22 06:36:33;;;;;;;18.38;8.68;;;9.40;76.40;;;;;;5014096;28;20025;-69
2022/02/22 06:39:00;;;;;;;15.90;8.27;;;9.40;76.40;;;;;;5013577;28;20084;-71
2022/02/22 06:41:26;;;;;;;16.23;9.30;;;9.40;76.40;;;;;;5013605;28;20048;-72
2022/02/22 06:43:53;;;;;;;15.90;8.85;;;9.40;75.80;;;;;;5013448;28;20069;-66
2022/02/22 06:46:19;;;;;;;17.20;8.93;;;9.40;75.70;;;;;;4977626;28;20383;-71
2022/02/22 06:48:45;;;;;;;17.25;10.30;;;9.40;75.70;;;;;;5001787;28;20060;-68
2022/02/22 06:51:10;;;;;;;14.48;7.97;;;9.40;75.70;;;;;;4993634;28;20042;-69
2022/02/22 06:53:36;;;;;;;16.90;8.93;;;9.40;75.40;;;;;;5011767;28;20026;-68
2022/02/22 06:56:03;;;;;;;16.90;9.23;;;9.50;75.20;;;;;;4996887;28;20029;-67
2022/02/22 06:58:29;;;;;;;17.52;8.57;;;9.50;74.80;;;;;;5013930;28;20164;-71
2022/02/22 07:00:58;;;;;;;16.60;8.00;;;9.60;74.40;;;;;;5014749;28;20379;-72
2022/02/22 07:03:25;;;;;;;14.32;8.10;;;9.70;74.00;;;;;;5014126;28;20026;-69
2022/02/22 07:05:51;;;;;;;16.98;8.25;;;9.80;73.70;;;;;;4997028;28;20044;-69
2022/02/22 07:08:17;;;;;;;14.50;7.70;;;10.00;72.50;;;;;;5013902;28;20105;-73
2022/02/22 07:10:42;;;;;;;15.20;8.38;;;10.10;72.10;;;;;;5014132;28;20368;-73
2022/02/22 07:13:08;;;;;;;16.08;8.32;;;10.20;71.80;;;;;;5013838;28;20434;-69
2022/02/22 07:15:35;;;;;;;17.02;8.48;;;10.40;71.70;;;;;;5013663;28;20038;-68
2022/02/22 07:18:05;;;;;;;19.05;8.90;;;10.50;71.00;;;;;;5013363;28;20064;-69
2022/02/22 07:20:31;;;;;;;16.33;8.57;;;10.60;70.20;;;;;;5013441;28;20117;-70
2022/02/22 07:22:57;;;;;;;16.67;7.70;;;10.80;69.80;;;;;;5013347;28;20045;-70
2022/02/22 07:25:24;;;;;;;14.73;8.02;;;10.90;69.60;;;;;;5009910;28;20057;-68
2022/02/22 07:27:51;;;;;;;13.82;7.38;;;10.90;68.80;;;;;;4993613;28;20018;-69
2022/02/22 07:30:19;;;;;;;12.77;7.05;;;11.10;68.30;;;;;;4993939;28;20034;-72
2022/02/22 07:32:47;;;;;;;16.20;6.30;;;11.20;67.30;;;;;;4993707;28;20026;-76
2022/02/22 07:35:14;;;;;;;12.70;6.43;;;11.30;65.90;;;;;;4992300;28;20077;-70
2022/02/22 07:37:44;;;;;;;13.57;6.70;;;11.30;65.70;;;;;;4993528;28;20510;-71
2022/02/22 07:40:14;;;;;;;11.00;5.93;;;11.50;64.80;;;;;;4993606;28;20124;-71
2022/02/22 07:42:40;;;;;;;12.57;5.70;;;11.60;63.80;;;;;;4992973;28;20149;-76
2022/02/22 07:45:08;;;;;;;11.32;5.43;;;11.70;63.10;;;;;;4992367;28;20384;-74
2022/02/22 07:47:34;;;;;;;10.35;5.28;;;11.80;62.40;;;;;;4993217;28;20035;-76
2022/02/22 07:50:00;;;;;;;9.57;4.93;;;11.80;60.40;;;;;;4992272;28;20038;-75
2022/02/22 07:52:30;;;;;;;9.90;5.00;;;11.90;59.80;;;;;;4993270;28;20045;-75
2022/02/22 07:54:56;;;;;;;11.13;5.55;;;11.90;59.00;;;;;;4993696;28;20036;-78
2022/02/22 07:57:23;;;;;;;11.65;5.82;;;11.90;58.90;;;;;;4994084;28;20034;-80
2022/02/22 07:59:49;;;;;;;10.43;5.47;;;11.90;58.50;;;;;;5003162;28;20089;-76
2022/02/22 08:02:15;;;;;;;11.68;5.60;;;11.90;58.50;;;;;;4981318;28;20377;-74
2022/02/22 08:04:41;;;;;;;15.30;6.47;;;11.90;58.50;;;;;;4999976;28;20046;-75
2022/02/22 08:07:07;;;;;;;11.95;6.20;;;11.90;58.40;;;;;;4979751;28;20026;-73
2022/02/22 08:09:33;;;;;;;11.43;6.45;;;11.90;58.20;;;;;;4979437;28;20030;-74
2022/02/22 08:11:59;;;;;;;13.32;6.95;;;11.90;58.10;;;;;;4997155;28;20028;-73
2022/02/22 08:14:25;;;;;;;13.77;7.03;;;11.90;58.50;;;;;;4997779;28;20089;-74
2022/02/22 08:16:51;;;;;;;19.95;6.70;;;11.90;58.30;;;;;;4979509;28;20030;-75
2022/02/22 08:19:17;;;;;;;16.10;6.40;;;11.90;58.20;;;;;;4997082;28;20018;-74
2022/02/22 08:21:43;;;;;;;11.27;6.28;;;11.90;58.70;;;;;;4996921;28;20049;-75
2022/02/22 08:24:10;;;;;;;12.43;5.90;;;11.90;57.70;;;;;;4997275;28;20336;-74
2022/02/22 08:26:36;;;;;;;13.05;5.80;;;11.90;58.10;;;;;;4997187;28;20037;-73
2022/02/22 08:29:02;;;;;;;13.20;6.78;;;11.90;58.00;;;;;;4996788;28;20476;-75
2022/02/22 08:31:28;;;;;;;9.02;5.25;;;12.00;57.50;;;;;;4997211;28;20119;-77
2022/02/22 08:33:58;;;;;;;14.18;4.82;;;12.00;56.80;;;;;;4997133;28;20029;-76
2022/02/22 08:36:26;;;;;;;9.77;4.90;;;12.10;55.90;;;;;;4997088;28;20109;-75
2022/02/22 08:38:53;;;;;;;12.15;5.28;;;12.10;56.10;;;;;;4997032;28;20456;-75
2022/02/22 08:41:19;;;;;;;10.48;5.13;;;12.10;55.20;;;;;;4996720;28;20427;-74
2022/02/22 08:43:45;;;;;;;11.82;5.82;;;12.10;55.30;;;;;;4996385;28;20046;-76
2022/02/22 08:46:11;;;;;;;8.98;4.80;;;12.10;54.90;;;;;;4996779;28;20064;-76
2022/02/22 08:48:37;;;;;;;12.52;5.40;;;12.10;55.10;;;;;;4996904;28;20030;-73
2022/02/22 08:51:02;;;;;;;14.15;4.88;;;12.10;55.40;;;;;;4978841;28;20041;-71
2022/02/22 08:53:28;;;;;;;9.23;4.90;;;12.20;54.80;;;;;;4978708;28;20475;-72
2022/02/22 08:55:54;;;;;;;9.05;5.20;;;12.20;54.40;;;;;;4978814;28;20026;-70
2022/02/22 08:58:19;;;;;;;9.27;4.80;;;12.30;54.20;;;;;;4996204;28;20156;-71
2022/02/22 09:00:45;;;;;;;14.80;5.20;;;12.30;54.20;;;;;;4978774;28;20050;-72
2022/02/22 09:03:14;;;;;;;9.85;5.30;;;12.30;54.50;;;;;;4996136;28;20391;-74
2022/02/22 09:05:39;;;;;;;13.95;5.88;;;12.40;54.30;;;;;;4978340;28;20036;-71
2022/02/22 09:08:05;;;;;;;9.50;4.30;;;12.40;53.60;;;;;;4995191;28;20026;-71
2022/02/22 09:10:31;;;;;;;9.93;5.35;;;12.50;53.20;;;;;;4995977;28;20026;-70
2022/02/22 09:12:57;;;;;;;9.25;4.40;;;12.50;52.40;;;;;;4996115;28;20026;-70
2022/02/22 09:15:24;;;;;;;11.68;5.05;;;12.60;52.70;;;;;;4996357;28;20101;-74
2022/02/22 09:17:50;;;;;;;9.80;4.53;;;12.70;52.10;;;;;;4996044;28;20034;-72
2022/02/22 09:20:19;;;;;;;12.10;4.22;;;12.80;51.80;;;;;;4978576;28;20034;-71
2022/02/22 09:23:01;;;;;;;;;;;;;;;;;;;;;
2022/02/22 09:25:38;;;;;;;6.30;3.13;;;12.90;51.40;;;;;;4995940;28;20039;-70
2022/02/22 09:28:17;;;;;;;7.13;3.80;;;13.00;51.10;;;;;;4977854;28;20034;-72
2022/02/22 09:30:48;;;;;;;7.82;3.78;;;13.00;50.40;;;;;;4978010;28;20045;-74
2022/02/22 09:36:48;;;;;;;9.27;3.53;;;13.20;48.10;;;;;;4995681;28;20030;-73
2022/02/22 09:39:37;;;;;;;9.25;3.35;;;13.20;48.90;;;;;;4978596;28;20045;-73
2022/02/22 09:42:07;;;;;;;8.75;3.53;;;13.30;48.20;;;;;;4995522;28;20046;-71
2022/02/22 09:44:34;;;;;;;9.52;3.83;;;13.40;48.00;;;;;;4995379;28;20412;-71
2022/02/22 09:47:01;;;;;;;6.65;3.10;;;13.50;47.80;;;;;;4995274;28;20479;-71
2022/02/22 09:49:27;;;;;;;9.27;3.33;;;13.60;47.00;;;;;;4995158;28;20027;-70
2022/02/22 09:51:55;;;;;;;7.28;3.50;;;13.60;46.50;;;;;;4995511;28;20030;-70
2022/02/22 09:54:21;;;;;;;11.40;3.60;;;13.70;47.60;;;;;;4995269;28;20487;-71
2022/02/22 09:56:48;;;;;;;5.43;2.70;;;13.80;46.60;;;;;;4995429;28;20022;-71
2022/02/22 09:59:14;;;;;;;10.13;2.92;;;13.90;46.00;;;;;;4995432;28;20376;-70
2022/02/22 10:01:46;;;;;;;7.07;2.95;;;14.00;45.70;;;;;;4995398;28;20030;-71
2022/02/22 10:04:12;;;;;;;6.28;2.50;;;14.10;45.60;;;;;;4977625;28;20093;-70
2022/02/22 10:06:38;;;;;;;6.40;2.20;;;14.20;45.40;;;;;;4996675;28;20026;-71
2022/02/22 10:09:06;;;;;;;9.70;2.63;;;14.30;44.00;;;;;;4996750;28;20033;-72
2022/02/22 10:11:45;;;;;;;5.47;2.20;;;14.40;43.70;;;;;;4995465;28;20042;-72
2022/02/22 10:14:20;;;;;;;4.47;2.10;;;14.50;43.30;;;;;;4994956;28;20034;-70
2022/02/22 10:16:46;;;;;;;3.28;1.73;;;14.60;41.00;;;;;;4977168;28;20030;-72
2022/02/22 10:19:15;;;;;;;4.43;1.80;;;14.70;41.50;;;;;;4977189;28;20392;-72
2022/02/22 10:21:43;;;;;;;2.65;1.50;;;14.70;40.30;;;;;;4994191;28;20101;-72
2022/02/22 10:24:10;;;;;;;7.38;2.17;;;14.80;40.40;;;;;;4994865;28;20097;-70
2022/02/22 10:26:37;;;;;;;5.28;2.42;;;14.90;39.90;;;;;;4994829;28;20113;-71
2022/02/22 10:29:14;;;;;;;6.30;2.00;;;14.90;40.90;;;;;;4994702;28;20134;-73
2022/02/22 10:31:40;;;;;;;5.88;1.77;;;15.00;39.50;;;;;;4994869;28;20101;-71
2022/02/22 10:34:32;;;;;;;3.85;1.90;;;15.10;39.40;;;;;;4993584;28;20105;-73
2022/02/22 10:36:58;;;;;;;4.03;1.70;;;15.20;38.40;;;;;;4994609;28;20053;-70
2022/02/22 10:39:23;;;;;;;8.05;1.90;;;15.30;39.50;;;;;;4994301;28;20026;-72
2022/02/22 10:41:53;;;;;;;5.15;2.35;;;15.30;39.40;;;;;;4994771;28;20023;-72
2022/02/22 10:44:34;;;;;;;5.07;1.85;;;15.40;39.60;;;;;;4994317;28;20519;-71
2022/02/22 10:47:00;;;;;;;6.68;1.98;;;15.50;38.00;;;;;;4994125;28;20037;-72
2022/02/22 10:49:32;;;;;;;4.68;2.00;;;15.50;39.10;;;;;;4993848;28;20114;-72
2022/02/22 10:52:07;;;;;;;5.50;1.60;;;15.60;39.00;;;;;;4994390;28;20105;-74
2022/02/22 10:54:32;;;;;;;4.45;1.90;;;15.60;37.00;;;;;;4994134;28;20034;-71
2022/02/22 10:56:58;;;;;;;2.30;1.20;;;15.70;37.50;;;;;;4994421;28;20072;-72
2022/02/22 10:59:28;;;;;;;4.28;1.52;;;15.70;36.70;;;;;;4994105;28;20445;-72
2022/02/22 11:01:55;;;;;;;5.95;1.50;;;15.70;34.50;;;;;;4994190;28;20018;-71
2022/02/22 11:04:21;;;;;;;6.35;1.73;;;15.80;35.20;;;;;;4994533;28;20081;-71
2022/02/22 11:06:47;;;;;;;2.95;1.45;;;15.80;35.10;;;;;;4994404;28;20018;-75
2022/02/22 11:09:19;;;;;;;3.30;1.40;;;15.90;35.30;;;;;;4994685;28;20030;-73
2022/02/22 11:11:58;;;;;;;6.65;1.90;;;16.00;35.10;;;;;;4994681;28;20026;-72
2022/02/22 11:14:31;;;;;;;3.65;1.33;;;16.00;33.80;;;;;;4994480;28;20077;-74
2022/02/22 11:17:00;;;;;;;4.07;1.43;;;16.00;33.30;;;;;;4994708;28;20019;-75
2022/02/22 11:19:33;;;;;;;4.18;1.10;;;16.00;34.30;;;;;;4993819;28;20105;-74
2022/02/22 11:22:17;;;;;;;11.18;1.48;;;16.10;33.60;;;;;;4994101;28;20037;-72
2022/02/22 11:24:45;;;;;;;3.20;1.30;;;16.10;32.20;;;;;;4993857;28;20046;-71
2022/02/22 11:27:11;;;;;;;16.67;2.55;;;16.20;33.10;;;;;;4993931;28;20026;-74
2022/02/22 11:29:37;;;;;;;5.05;1.90;;;16.20;33.30;;;;;;4993391;28;20076;-71
2022/02/22 11:32:11;;;;;;;3.35;1.40;;;16.30;33.40;;;;;;4993514;28;20033;-71
2022/02/22 11:34:41;;;;;;;7.88;3.00;;;16.30;33.30;;;;;;4993605;28;20049;-71
2022/02/22 11:37:10;;;;;;;4.25;1.50;;;16.40;34.40;;;;;;4993563;28;20088;-71
2022/02/22 11:39:51;;;;;;;3.75;1.65;;;16.50;33.80;;;;;;4993134;28;20466;-74
2022/02/22 11:42:23;;;;;;;3.35;1.50;;;16.50;32.80;;;;;;4993574;28;20539;-73
2022/02/22 11:45:05;;;;;;;5.50;1.42;;;16.60;33.10;;;;;;4993111;28;20051;-74
2022/02/22 11:47:32;;;;;;;3.58;1.42;;;16.60;31.80;;;;;;4993597;28;20033;-74
2022/02/22 11:49:59;;;;;;;2.83;1.35;;;16.70;32.40;;;;;;4993370;28;20488;-74
2022/02/22 11:52:41;;;;;;;3.53;1.30;;;16.60;31.40;;;;;;4993438;28;20092;-76
2022/02/22 11:55:11;;;;;;;3.75;1.05;;;16.60;30.00;;;;;;4993445;28;20054;-74
2022/02/22 11:57:48;;;;;;;2.72;1.20;;;16.70;30.60;;;;;;4993445;28;20026;-74
2022/02/22 12:00:16;;;;;;;4.95;1.40;;;16.70;30.40;;;;;;4993882;28;20348;-78
2022/02/22 12:02:42;;;;;;;4.68;1.45;;;16.80;31.70;;;;;;4993927;28;20076;-75
2022/02/22 12:05:28;;;;;;;4.13;1.73;;;16.90;31.80;;;;;;4993271;28;20109;-77
2022/02/22 12:08:03;;;;;;;2.80;1.15;;;17.00;31.10;;;;;;4993276;28;20025;-75
2022/02/22 12:10:31;;;;;;;5.18;1.48;;;17.00;29.30;;;;;;4993558;28;20109;-74
2022/02/22 12:13:12;;;;;;;2.92;1.20;;;17.00;29.60;;;;;;4993396;28;20379;-74
2022/02/22 12:15:41;;;;;;;4.22;1.50;;;17.10;29.70;;;;;;4993562;28;20030;-76
2022/02/22 12:18:18;;;;;;;2.83;1.13;;;17.10;29.90;;;;;;4993107;28;20030;-71
2022/02/22 12:20:45;;;;;;;2.50;1.00;;;17.30;29.60;;;;;;4993047;28;20034;-70
2022/02/22 12:23:28;;;;;;;4.28;1.67;;;17.30;28.80;;;;;;4992879;28;20610;-71
2022/02/22 12:25:55;;;;;;;9.15;1.10;;;17.30;27.90;;;;;;4993004;28;20019;-70
2022/02/22 12:28:23;;;;;;;3.38;1.45;;;17.40;27.60;;;;;;4992972;28;20046;-70
2022/02/22 12:30:50;;;;;;;6.03;1.85;;;17.40;28.20;;;;;;4993249;28;20038;-70
2022/02/22 12:33:17;;;;;;;3.97;1.30;;;17.40;28.60;;;;;;4993143;28;20057;-70
2022/02/22 12:35:46;;;;;;;2.15;1.00;;;17.40;28.80;;;;;;4992838;28;20026;-70
2022/02/22 12:38:26;;;;;;;5.45;1.33;;;17.50;28.10;;;;;;4993280;28;20045;-72
2022/02/22 12:40:53;;;;;;;4.40;0.90;;;17.60;27.90;;;;;;4975795;28;20034;-71
2022/02/22 12:43:20;;;;;;;1.92;0.80;;;17.70;27.30;;;;;;4993469;28;20073;-71
2022/02/22 12:45:53;;;;;;;1.75;0.70;;;17.80;26.70;;;;;;4996687;28;20480;-72
2022/02/22 12:48:20;;;;;;;2.65;0.82;;;17.80;24.80;;;;;;4996735;28;20523;-71
2022/02/22 12:50:57;;;;;;;2.75;0.93;;;17.80;24.70;;;;;;4996313;28;20419;-71
2022/02/22 12:53:25;;;;;;;1.67;0.77;;;17.90;24.50;;;;;;4996620;28;20018;-71